createdAt,value
2024-03-09T00:00:33.436Z,3.80
2024-03-09T00:03:03.537Z,3.80
2024-03-09T00:05:30.600Z,3.80
2024-03-09T00:07:58.969Z,3.90
2024-03-09T00:10:29.773Z,3.90
2024-03-09T00:12:57.754Z,3.80
2024-03-09T00:15:25.482Z,4.00
2024-03-09T00:17:53.275Z,3.90
2024-03-09T00:20:22.683Z,3.80
2024-03-09T00:22:49.989Z,3.50
2024-03-09T00:25:17.219Z,3.40
2024-03-09T00:27:45.171Z,3.40
2024-03-09T00:30:20.511Z,3.40
2024-03-09T00:32:52.201Z,3.40
2024-03-09T00:35:19.438Z,3.40
2024-03-09T00:37:46.388Z,3.40
2024-03-09T00:40:13.979Z,3.30
2024-03-09T00:42:41.279Z,3.20
2024-03-09T00:45:09.233Z,3.30
2024-03-09T00:47:37.422Z,3.20
2024-03-09T00:50:06.288Z,3.10
2024-03-09T00:52:34.046Z,2.90
2024-03-09T00:55:01.833Z,2.70
2024-03-09T00:57:28.997Z,2.70
2024-03-09T00:59:56.575Z,2.70
2024-03-09T01:02:23.864Z,2.80
2024-03-09T01:04:51.988Z,2.70
2024-03-09T01:07:20.954Z,2.90
2024-03-09T01:09:49.411Z,2.90
2024-03-09T01:12:18.775Z,2.90
2024-03-09T01:14:49.496Z,3.00
2024-03-09T01:17:22.580Z,2.90
2024-03-09T01:19:49.592Z,2.90
2024-03-09T01:22:17.298Z,2.90
2024-03-09T01:24:44.439Z,2.90
2024-03-09T01:27:11.231Z,2.80
2024-03-09T01:29:38.356Z,2.50
2024-03-09T01:32:07.282Z,2.20
2024-03-09T01:34:34.649Z,1.90
2024-03-09T01:37:06.529Z,1.70
2024-03-09T01:39:33.456Z,1.80
2024-03-09T01:42:00.418Z,2.10
2024-03-09T01:44:27.276Z,1.90
2024-03-09T01:46:55.014Z,2.20
2024-03-09T01:49:22.247Z,1.90
2024-03-09T01:51:51.158Z,2.30
2024-03-09T01:54:25.309Z,1.90
2024-03-09T01:56:52.398Z,2.10
2024-03-09T01:59:19.257Z,2.30
2024-03-09T02:01:46.384Z,2.20
2024-03-09T02:04:13.272Z,2.30
2024-03-09T02:06:41.530Z,2.50
2024-03-09T02:09:09.216Z,2.50
2024-03-09T02:11:43.364Z,2.50
2024-03-09T02:14:10.587Z,2.80
2024-03-09T02:16:37.612Z,2.50
2024-03-09T02:19:08.392Z,2.50
2024-03-09T02:21:36.226Z,2.50
2024-03-09T02:24:10.208Z,2.70
2024-03-09T02:26:39.694Z,2.60
2024-03-09T02:29:07.204Z,2.90
2024-03-09T02:31:34.263Z,2.50
2024-03-09T02:34:02.497Z,2.40
2024-03-09T02:36:33.787Z,2.30
2024-03-09T02:39:02.368Z,2.30
2024-03-09T02:41:29.327Z,2.10
2024-03-09T02:43:56.907Z,1.90
2024-03-09T02:46:26.987Z,2.30
2024-03-09T02:48:57.637Z,2.10
2024-03-09T02:51:28.077Z,1.90
2024-03-09T02:53:55.070Z,2.20
2024-03-09T02:56:22.155Z,2.00
2024-03-09T02:58:50.012Z,2.00
2024-03-09T03:01:21.634Z,2.30
2024-03-09T03:04:00.073Z,2.10
2024-03-09T03:06:29.939Z,2.40
2024-03-09T03:09:00.506Z,2.30
2024-03-09T03:11:29.372Z,2.20
2024-03-09T03:13:56.404Z,2.30
2024-03-09T03:16:28.145Z,2.40
2024-03-09T03:18:59.176Z,2.50
2024-03-09T03:21:26.862Z,2.40
2024-03-09T03:23:54.343Z,2.40
2024-03-09T03:26:21.751Z,2.60
2024-03-09T03:28:49.716Z,2.50
2024-03-09T03:31:20.288Z,2.50
2024-03-09T03:33:47.770Z,2.70
2024-03-09T03:36:18.726Z,2.60
2024-03-09T03:38:47.650Z,2.70
2024-03-09T03:41:15.984Z,2.80
2024-03-09T03:43:44.224Z,2.80
2024-03-09T03:46:12.656Z,3.20
2024-03-09T03:48:41.349Z,3.00
2024-03-09T03:51:13.935Z,2.90
2024-03-09T03:53:41.533Z,3.00
2024-03-09T03:56:11.354Z,2.50
2024-03-09T03:58:43.599Z,2.00
2024-03-09T04:01:10.825Z,1.90
2024-03-09T04:03:39.488Z,2.00
2024-03-09T04:06:07.610Z,2.10
2024-03-09T04:08:34.846Z,2.00
2024-03-09T04:11:03.485Z,2.20
2024-03-09T04:13:31.929Z,2.30
2024-03-09T04:15:59.460Z,2.30
2024-03-09T04:18:30.004Z,2.50
2024-03-09T04:21:03.129Z,2.70
2024-03-09T04:23:30.144Z,2.50
2024-03-09T04:26:00.208Z,2.60
2024-03-09T04:28:30.257Z,2.70
2024-03-09T04:31:00.915Z,2.90
2024-03-09T04:33:29.733Z,3.00
2024-03-09T04:35:58.525Z,3.10
2024-03-09T04:38:27.492Z,3.20
2024-03-09T04:40:54.347Z,3.20
2024-03-09T04:43:21.531Z,3.30
2024-03-09T04:45:52.759Z,3.30
2024-03-09T04:48:20.332Z,3.30
2024-03-09T04:50:48.790Z,3.50
2024-03-09T04:53:17.610Z,3.40
2024-03-09T04:55:49.643Z,3.20
2024-03-09T04:58:18.212Z,3.00
2024-03-09T05:00:45.778Z,3.20
2024-03-09T05:03:19.066Z,3.10
2024-03-09T05:05:46.189Z,3.10
2024-03-09T05:08:13.397Z,3.30
2024-03-09T05:10:41.024Z,3.30
2024-03-09T05:13:09.487Z,3.20
2024-03-09T05:15:37.675Z,3.10
2024-03-09T05:18:09.327Z,3.00
2024-03-09T05:20:37.219Z,3.10
2024-03-09T05:23:05.791Z,3.10
2024-03-09T05:25:33.025Z,2.80
2024-03-09T05:28:00.068Z,3.30
2024-03-09T05:30:29.694Z,3.30
2024-03-09T05:33:00.937Z,3.40
2024-03-09T05:35:29.401Z,3.50
2024-03-09T05:37:57.537Z,3.50
2024-03-09T05:40:27.939Z,3.70
2024-03-09T05:42:56.592Z,3.70
2024-03-09T05:45:24.203Z,3.80
2024-03-09T05:47:51.910Z,4.00
2024-03-09T05:50:18.800Z,3.90
2024-03-09T05:52:48.796Z,4.00
2024-03-09T05:55:17.300Z,4.10
2024-03-09T05:57:44.603Z,4.00
2024-03-09T06:00:12.375Z,4.00
2024-03-09T06:02:45.024Z,4.10
2024-03-09T06:05:13.526Z,4.10
2024-03-09T06:07:41.356Z,4.00
2024-03-09T06:10:21.391Z,4.00
2024-03-09T06:12:49.228Z,4.00
2024-03-09T06:15:17.201Z,3.90
2024-03-09T06:17:45.364Z,3.70
2024-03-09T06:20:12.629Z,3.70
2024-03-09T06:22:43.293Z,3.70
2024-03-09T06:25:13.867Z,3.80
2024-03-09T06:27:41.101Z,3.80
2024-03-09T06:30:10.235Z,3.80
2024-03-09T06:32:37.079Z,3.90
2024-03-09T06:35:04.540Z,4.00
2024-03-09T06:37:32.316Z,4.10
2024-03-09T06:39:59.173Z,4.10
2024-03-09T06:42:26.012Z,4.00
2024-03-09T06:44:52.956Z,4.00
2024-03-09T06:47:20.354Z,4.00
2024-03-09T06:49:47.571Z,3.90
2024-03-09T06:52:16.354Z,3.80
2024-03-09T06:54:43.411Z,4.10
2024-03-09T06:57:13.356Z,3.80
2024-03-09T06:59:42.910Z,3.90
2024-03-09T07:02:09.822Z,3.90
2024-03-09T07:04:37.092Z,4.20
2024-03-09T07:07:04.198Z,4.50
2024-03-09T07:09:30.964Z,4.50
2024-03-09T07:12:00.886Z,4.80
2024-03-09T07:14:27.921Z,5.20
2024-03-09T07:16:54.976Z,5.50
2024-03-09T07:19:21.942Z,6.00
2024-03-09T07:21:49.084Z,6.60
2024-03-09T07:24:15.895Z,7.00
2024-03-09T07:26:43.046Z,7.40
2024-03-09T07:29:12.241Z,7.30
2024-03-09T07:31:39.409Z,7.70
2024-03-09T07:34:06.364Z,8.20
2024-03-09T07:36:33.197Z,8.80
2024-03-09T07:39:01.414Z,9.60
2024-03-09T07:41:28.240Z,10.30
2024-03-09T07:43:55.131Z,11.00
2024-03-09T07:46:22.295Z,11.50
2024-03-09T07:48:49.729Z,11.70
2024-03-09T07:51:16.681Z,11.70
2024-03-09T07:53:43.593Z,12.00
2024-03-09T07:56:13.813Z,12.30
2024-03-09T07:58:41.259Z,12.60
2024-03-09T08:01:09.348Z,12.90
2024-03-09T08:03:36.540Z,13.20
2024-03-09T08:06:03.484Z,13.50
2024-03-09T08:08:30.913Z,13.80
2024-03-09T08:10:58.703Z,13.90
2024-03-09T08:13:26.792Z,14.10
2024-03-09T08:15:55.526Z,14.30
2024-03-09T08:18:23.509Z,14.70
2024-03-09T08:20:51.170Z,15.20
2024-03-09T08:23:19.040Z,15.50
2024-03-09T08:25:46.542Z,16.00
2024-03-09T08:28:14.419Z,16.40
2024-03-09T08:30:42.309Z,16.40
2024-03-09T08:33:11.072Z,16.70
2024-03-09T08:35:38.317Z,17.00
2024-03-09T08:38:06.187Z,17.20
2024-03-09T08:40:33.753Z,16.50
2024-03-09T08:43:01.055Z,17.20
2024-03-09T08:45:33.960Z,16.90
2024-03-09T08:48:00.855Z,17.60
2024-03-09T08:50:27.713Z,17.60
2024-03-09T08:52:54.695Z,18.10
2024-03-09T08:55:21.730Z,18.10
2024-03-09T08:57:50.426Z,17.90
2024-03-09T09:00:21.614Z,18.20
2024-03-09T09:02:49.222Z,18.80
2024-03-09T09:05:16.920Z,19.70
2024-03-09T09:07:45.835Z,20.10
2024-03-09T09:10:13.156Z,20.50
2024-03-09T09:12:40.811Z,20.50
2024-03-09T09:15:08.947Z,19.90
2024-03-09T09:17:36.576Z,20.20
2024-03-09T09:20:06.124Z,20.90
2024-03-09T09:22:33.641Z,21.20
2024-03-09T09:25:00.718Z,21.40
2024-03-09T09:27:29.980Z,21.80
2024-03-09T09:29:56.873Z,21.40
2024-03-09T09:32:25.406Z,21.10
2024-03-09T09:34:52.545Z,21.50
2024-03-09T09:37:19.588Z,21.10
2024-03-09T09:39:47.864Z,21.00
2024-03-09T09:42:14.809Z,20.80
2024-03-09T09:44:42.101Z,20.90
2024-03-09T09:47:11.563Z,21.00
2024-03-09T09:49:39.535Z,21.20
2024-03-09T09:52:08.642Z,21.40
2024-03-09T09:54:35.779Z,21.00
2024-03-09T09:57:02.584Z,20.10
2024-03-09T09:59:31.930Z,20.10
2024-03-09T10:01:59.171Z,20.60
2024-03-09T10:04:27.778Z,20.80
2024-03-09T10:07:06.032Z,20.70
2024-03-09T10:09:36.120Z,20.70
2024-03-09T10:12:05.045Z,21.10
2024-03-09T10:14:32.228Z,21.40
2024-03-09T10:17:08.062Z,21.70
2024-03-09T10:19:36.045Z,21.20
2024-03-09T10:22:03.117Z,21.10
2024-03-09T10:24:30.117Z,21.70
2024-03-09T10:27:11.577Z,22.20
2024-03-09T10:29:38.505Z,22.00
2024-03-09T10:32:09.291Z,20.00
2024-03-09T10:34:36.845Z,20.20
2024-03-09T10:37:08.142Z,20.70
2024-03-09T10:39:35.058Z,21.30
2024-03-09T10:42:05.310Z,21.40
2024-03-09T10:44:32.755Z,21.80
2024-03-09T10:47:03.752Z,22.00
2024-03-09T10:49:32.115Z,22.00
2024-03-09T10:52:03.715Z,22.10
2024-03-09T10:55:00.352Z,22.20
2024-03-09T10:57:30.874Z,23.00
2024-03-09T11:00:05.216Z,23.30
2024-03-09T11:02:40.648Z,23.30
2024-03-09T11:05:09.858Z,23.40
2024-03-09T11:17:36.287Z,25.60
2024-03-09T11:29:53.572Z,23.50
2024-03-09T11:37:16.492Z,22.30
2024-03-09T11:42:17.239Z,21.90
2024-03-09T11:54:45.277Z,22.40
2024-03-09T11:57:12.095Z,20.90
2024-03-09T11:59:38.841Z,20.20
2024-03-09T12:02:09.243Z,20.10
2024-03-09T12:04:37.325Z,19.30
2024-03-09T12:09:34.793Z,20.20
2024-03-09T12:12:10.223Z,20.50
2024-03-09T12:14:37.373Z,20.10
2024-03-09T12:29:21.174Z,20.10
2024-03-09T12:31:49.373Z,19.60
2024-03-09T12:39:17.915Z,19.50
2024-03-09T12:46:41.709Z,19.60
2024-03-09T12:59:05.433Z,19.30
2024-03-09T13:01:33.546Z,19.50
2024-03-09T13:04:05.609Z,19.10
2024-03-09T13:06:32.450Z,18.60
2024-03-09T13:09:00.337Z,18.30
2024-03-09T13:11:28.536Z,18.30
2024-03-09T13:13:56.236Z,18.10
2024-03-09T13:16:23.164Z,18.20
2024-03-09T13:18:51.481Z,18.50
2024-03-09T13:21:18.607Z,18.60
2024-03-09T13:23:45.685Z,18.30
2024-03-09T13:26:15.874Z,18.10
2024-03-09T13:28:43.099Z,18.50
2024-03-09T13:31:10.551Z,19.00
2024-03-09T13:33:43.428Z,18.50
2024-03-09T13:36:17.924Z,18.20
2024-03-09T13:38:45.241Z,18.10
2024-03-09T13:41:12.135Z,17.80
2024-03-09T13:43:45.338Z,17.70
2024-03-09T13:46:12.606Z,17.80
2024-03-09T13:48:44.294Z,17.50
2024-03-09T13:51:16.558Z,17.40
2024-03-09T13:53:44.335Z,17.40
2024-03-09T13:56:21.345Z,17.40
2024-03-09T13:58:48.982Z,17.40
2024-03-09T14:03:45.832Z,18.00
2024-03-09T14:06:21.128Z,17.60
2024-03-09T14:08:49.369Z,17.20
2024-03-09T14:11:19.652Z,17.00
2024-03-09T14:13:46.866Z,16.90
2024-03-09T14:16:15.264Z,16.90
2024-03-09T14:18:46.025Z,16.60
2024-03-09T14:21:19.260Z,16.60
2024-03-09T14:23:47.703Z,16.70
2024-03-09T14:26:14.621Z,16.70
2024-03-09T14:28:43.992Z,16.50
2024-03-09T14:31:16.817Z,16.60
2024-03-09T14:33:45.627Z,16.70
2024-03-09T14:36:19.599Z,16.60
2024-03-09T14:38:46.993Z,16.50
2024-03-09T14:41:19.377Z,16.50
2024-03-09T14:43:48.348Z,16.30
2024-03-09T14:46:15.346Z,16.30
2024-03-09T14:48:42.333Z,16.10
2024-03-09T14:51:11.723Z,16.10
2024-03-09T14:53:44.088Z,16.10
2024-03-09T14:56:11.127Z,16.10
2024-03-09T14:58:47.781Z,15.90
2024-03-09T15:01:25.639Z,15.80
2024-03-09T15:03:53.335Z,15.80
2024-03-09T15:06:22.294Z,15.70
2024-03-09T15:08:52.949Z,15.60
2024-03-09T15:11:21.818Z,15.60
2024-03-09T15:13:59.393Z,15.60
2024-03-09T15:16:28.950Z,15.70
2024-03-09T15:18:56.567Z,15.70
2024-03-09T15:21:26.524Z,15.60
2024-03-09T15:23:55.573Z,15.50
2024-03-09T15:26:28.529Z,15.50
2024-03-09T15:28:58.153Z,15.50
2024-03-09T15:31:25.446Z,15.50
2024-03-09T15:33:54.986Z,15.30
2024-03-09T15:36:22.195Z,15.30
2024-03-09T15:38:49.739Z,15.20
2024-03-09T15:41:17.583Z,15.20
2024-03-09T15:43:47.414Z,15.30
2024-03-09T15:46:14.935Z,15.20
2024-03-09T15:48:41.788Z,15.20
2024-03-09T15:51:11.670Z,15.10
2024-03-09T15:53:41.278Z,15.10
2024-03-09T15:56:08.617Z,15.10
2024-03-09T15:58:41.658Z,15.00
2024-03-09T16:01:10.079Z,15.00
2024-03-09T16:03:43.173Z,14.90
2024-03-09T16:06:11.120Z,14.80
2024-03-09T16:08:38.740Z,14.80
2024-03-09T16:11:05.638Z,14.70
2024-03-09T16:13:33.142Z,14.60
2024-03-09T16:16:08.721Z,14.60
2024-03-09T16:18:36.626Z,14.60
2024-03-09T16:21:08.616Z,14.80
2024-03-09T16:23:45.426Z,14.50
2024-03-09T16:26:13.863Z,14.40
2024-03-09T16:28:40.771Z,14.30
2024-03-09T16:31:12.608Z,14.20
2024-03-09T16:33:40.189Z,14.20
2024-03-09T16:36:07.478Z,14.10
2024-03-09T16:38:34.600Z,14.00
2024-03-09T16:41:03.208Z,13.80
2024-03-09T16:43:34.903Z,13.70
2024-03-09T16:46:07.084Z,13.60
2024-03-09T16:48:37.846Z,13.40
2024-03-09T16:51:08.230Z,13.40
2024-03-09T16:53:38.325Z,13.20
2024-03-09T16:56:06.656Z,13.10
2024-03-09T16:58:34.170Z,13.00
2024-03-09T17:01:06.146Z,13.00
2024-03-09T17:03:33.798Z,13.00
2024-03-09T17:06:00.988Z,13.00
2024-03-09T17:08:28.246Z,13.20
2024-03-09T17:10:55.440Z,13.00
2024-03-09T17:13:25.482Z,12.90
2024-03-09T17:15:52.345Z,12.80
2024-03-09T17:18:22.659Z,12.90
2024-03-09T17:20:54.295Z,12.70
2024-03-09T17:23:22.963Z,12.60
2024-03-09T17:25:50.886Z,12.50
2024-03-09T17:28:21.900Z,12.50
2024-03-09T17:30:50.352Z,12.30
2024-03-09T17:33:18.567Z,12.20
2024-03-09T17:35:45.829Z,12.10
2024-03-09T17:38:12.840Z,12.10
2024-03-09T17:40:47.657Z,12.10
2024-03-09T17:43:15.117Z,12.00
2024-03-09T17:45:42.170Z,12.10
2024-03-09T17:48:09.550Z,12.00
2024-03-09T17:50:37.522Z,12.00
2024-03-09T17:53:06.830Z,12.10
2024-03-09T17:55:34.414Z,12.10
2024-03-09T17:58:09.739Z,12.00
2024-03-09T18:00:40.255Z,11.90
2024-03-09T18:03:09.324Z,11.90
2024-03-09T18:05:39.120Z,11.80
2024-03-09T18:08:11.538Z,11.70
2024-03-09T18:10:40.917Z,11.60
2024-03-09T18:13:12.396Z,11.70
2024-03-09T18:15:41.512Z,11.60
2024-03-09T18:18:14.847Z,11.70
2024-03-09T18:20:43.624Z,11.60
2024-03-09T18:23:11.859Z,11.60
2024-03-09T18:25:39.358Z,11.70
2024-03-09T18:28:09.522Z,11.60
2024-03-09T18:30:36.892Z,11.60
2024-03-09T18:33:10.677Z,11.50
2024-03-09T18:35:39.192Z,11.50
2024-03-09T18:38:08.094Z,11.50
2024-03-09T18:40:35.172Z,11.50
2024-03-09T18:43:03.729Z,11.40
2024-03-09T18:45:34.572Z,11.30
2024-03-09T18:48:02.370Z,11.30
2024-03-09T18:50:29.681Z,11.40
2024-03-09T18:52:59.353Z,11.60
2024-03-09T18:55:27.320Z,11.20
2024-03-09T18:57:54.915Z,11.20
2024-03-09T19:00:22.275Z,11.10
2024-03-09T19:02:52.296Z,11.10
2024-03-09T19:05:21.625Z,11.10
2024-03-09T19:07:48.946Z,11.10
2024-03-09T19:10:15.940Z,11.00
2024-03-09T19:12:43.154Z,10.90
2024-03-09T19:15:11.921Z,11.20
2024-03-09T19:17:40.220Z,10.90
2024-03-09T19:20:13.325Z,11.10
2024-03-09T19:22:41.053Z,10.70
2024-03-09T19:25:12.434Z,10.70
2024-03-09T19:27:43.173Z,10.60
2024-03-09T19:30:11.711Z,10.50
2024-03-09T19:32:39.183Z,10.50
2024-03-09T19:35:11.146Z,10.60
2024-03-09T19:37:39.933Z,10.50
2024-03-09T19:40:17.193Z,10.60
2024-03-09T19:42:47.776Z,10.80
2024-03-09T19:45:15.491Z,10.90
2024-03-09T19:47:42.776Z,10.90
2024-03-09T19:50:12.883Z,10.60
2024-03-09T19:52:42.123Z,10.60
2024-03-09T19:55:13.439Z,10.40
2024-03-09T19:57:42.084Z,10.30
2024-03-09T20:00:13.132Z,10.40
2024-03-09T20:02:40.821Z,10.60
2024-03-09T20:05:08.708Z,10.70
2024-03-09T20:07:36.259Z,10.50
2024-03-09T20:10:05.768Z,11.00
2024-03-09T20:12:34.844Z,11.10
2024-03-09T20:15:02.856Z,11.10
2024-03-09T20:17:30.947Z,11.20
2024-03-09T20:19:58.081Z,11.10
2024-03-09T20:22:25.185Z,10.90
2024-03-09T20:24:52.601Z,10.70
2024-03-09T20:27:19.636Z,11.10
2024-03-09T20:29:46.743Z,11.00
2024-03-09T20:32:14.207Z,11.00
2024-03-09T20:34:41.238Z,11.00
2024-03-09T20:37:08.247Z,11.10
2024-03-09T20:39:35.332Z,11.00
2024-03-09T20:42:02.453Z,11.00
2024-03-09T20:44:31.336Z,10.90
2024-03-09T20:46:58.517Z,10.90
2024-03-09T20:49:25.423Z,10.90
2024-03-09T20:51:53.130Z,10.80
2024-03-09T20:54:29.679Z,10.80
2024-03-09T20:56:57.605Z,10.80
2024-03-09T20:59:25.591Z,10.80
2024-03-09T21:01:52.451Z,10.70
2024-03-09T21:04:20.188Z,10.70
2024-03-09T21:06:47.781Z,10.70
2024-03-09T21:09:15.772Z,10.60
2024-03-09T21:11:43.487Z,10.60
2024-03-09T21:14:10.480Z,10.50
2024-03-09T21:16:37.379Z,10.50
2024-03-09T21:19:04.439Z,10.50
2024-03-09T21:21:31.953Z,10.60
2024-03-09T21:24:02.902Z,10.40
2024-03-09T21:26:29.971Z,10.40
2024-03-09T21:28:56.922Z,10.40
2024-03-09T21:31:24.076Z,10.50
2024-03-09T21:33:50.908Z,10.50
2024-03-09T21:36:18.293Z,10.50
2024-03-09T21:38:45.194Z,10.60
2024-03-09T21:41:12.945Z,10.50
2024-03-09T21:43:42.149Z,10.40
2024-03-09T21:46:11.483Z,10.40
2024-03-09T21:48:38.518Z,10.40
2024-03-09T21:51:08.837Z,10.30
2024-03-09T21:53:38.291Z,10.30
2024-03-09T21:56:06.563Z,10.30
2024-03-09T21:58:37.044Z,10.10
2024-03-09T22:01:07.557Z,10.00
2024-03-09T22:03:34.922Z,10.00
2024-03-09T22:06:03.492Z,10.00
2024-03-09T22:08:30.532Z,10.00
2024-03-09T22:10:58.526Z,10.00
2024-03-09T22:13:25.477Z,10.00
2024-03-09T22:15:52.390Z,10.00
2024-03-09T22:18:19.808Z,9.90
2024-03-09T22:20:51.132Z,9.80
2024-03-09T22:23:18.648Z,9.70
2024-03-09T22:25:46.283Z,9.60
2024-03-09T22:28:13.167Z,9.60
2024-03-09T22:30:40.352Z,9.50
2024-03-09T22:33:07.302Z,9.50
2024-03-09T22:35:34.510Z,9.40
2024-03-09T22:38:01.850Z,9.30
2024-03-09T22:40:29.046Z,9.10
2024-03-09T22:42:56.536Z,9.10
2024-03-09T22:45:26.780Z,8.90
2024-03-09T22:47:54.186Z,8.90
2024-03-09T22:50:25.291Z,8.80
2024-03-09T22:52:53.443Z,8.80
2024-03-09T22:55:20.417Z,8.80
2024-03-09T22:57:48.283Z,8.70
2024-03-09T23:00:28.034Z,8.60
2024-03-09T23:02:55.611Z,8.80
2024-03-09T23:05:24.224Z,9.00
2024-03-09T23:07:51.425Z,9.10
2024-03-09T23:10:21.357Z,9.10
2024-03-09T23:12:51.775Z,9.20
2024-03-09T23:15:19.507Z,9.30
2024-03-09T23:17:52.949Z,9.30
2024-03-09T23:20:21.090Z,9.30
2024-03-09T23:22:48.474Z,9.30
2024-03-09T23:25:16.370Z,9.40
2024-03-09T23:27:44.100Z,9.40
2024-03-09T23:30:16.427Z,9.60
2024-03-09T23:32:44.558Z,9.30
2024-03-09T23:35:12.510Z,9.30
2024-03-09T23:37:42.097Z,9.60
2024-03-09T23:40:09.695Z,9.30
2024-03-09T23:42:40.185Z,9.30
2024-03-09T23:45:11.465Z,9.20
2024-03-09T23:47:42.554Z,9.20
2024-03-09T23:50:13.472Z,9.30
2024-03-09T23:52:44.726Z,9.40
2024-03-09T23:55:13.268Z,9.40
2024-03-09T23:57:41.035Z,9.40
